Rechercher aéroport 
image banner adimage banner adimage banner ad
image banner ad

8CL1 - Lake Wohlford Resort

Situé à Escondido, United States

ICAO - 8CL1, IATA -

Données fournies par Airmate  

Information générale

Coordonnées: N33°11'10" W117°0'7"
Élévation : 1643 feet MSL.
Variation magnétique : 13° East
Voir autres Aéroports à California

Données opérationnelles

Special qualification required
Heure actuelle UTC:
Heure actuelle locale:
Météo à : KRNM - Ramona ( 18 km )
METAR: KRNM 270001Z 27007KT 9SM BKN016 23/18 A2995 RMK AO2 T02280183
Voir NOTAMs / SUP AIP / TFR affectant cet aéroport [VIEW]
Fréquences de communication: [VIEW]

Pistes:

Identifiant RWYQFULongueur (ft)Largeur (ft)SurfaceLDA (ft)
03134530OTHER
21134530OTHER

Coordonnées de l'aéroport

Adresse: Escondido United States

Vue satellite de 8CL1